sensor_id;sensor_type;location;lat;lon;timestamp;P1;durP1;ratioP1;P2;durP2;ratioP2
12871;SDS011;6504;53.766;9.626;2022-07-04T00:01:16;4.83;;;3.20;;
12871;SDS011;6504;53.766;9.626;2022-07-04T00:03:51;4.27;;;3.23;;
12871;SDS011;6504;53.766;9.626;2022-07-04T00:06:20;3.80;;;3.47;;
12871;SDS011;6504;53.766;9.626;2022-07-04T00:08:48;3.50;;;3.20;;
12871;SDS011;6504;53.766;9.626;2022-07-04T00:11:16;4.13;;;3.00;;
12871;SDS011;6504;53.766;9.626;2022-07-04T00:13:44;3.27;;;2.97;;
12871;SDS011;6504;53.766;9.626;2022-07-04T00:16:14;4.73;;;3.00;;
12871;SDS011;6504;53.766;9.626;2022-07-04T00:18:43;3.10;;;2.77;;
12871;SDS011;6504;53.766;9.626;2022-07-04T00:21:11;3.83;;;2.73;;
12871;SDS011;6504;53.766;9.626;2022-07-04T00:23:39;6.03;;;3.10;;
12871;SDS011;6504;53.766;9.626;2022-07-04T00:26:07;4.10;;;3.70;;
12871;SDS011;6504;53.766;9.626;2022-07-04T00:28:39;4.23;;;3.07;;
12871;SDS011;6504;53.766;9.626;2022-07-04T00:31:07;5.17;;;3.50;;
12871;SDS011;6504;53.766;9.626;2022-07-04T00:33:36;4.90;;;3.70;;
12871;SDS011;6504;53.766;9.626;2022-07-04T00:36:07;5.97;;;3.70;;
12871;SDS011;6504;53.766;9.626;2022-07-04T00:38:35;4.90;;;3.93;;
12871;SDS011;6504;53.766;9.626;2022-07-04T00:41:03;4.47;;;3.37;;
12871;SDS011;6504;53.766;9.626;2022-07-04T00:43:31;3.73;;;3.43;;
12871;SDS011;6504;53.766;9.626;2022-07-04T00:46:20;3.57;;;3.20;;
12871;SDS011;6504;53.766;9.626;2022-07-04T00:48:53;4.43;;;3.47;;
12871;SDS011;6504;53.766;9.626;2022-07-04T00:51:21;3.93;;;3.53;;
12871;SDS011;6504;53.766;9.626;2022-07-04T00:53:50;5.03;;;3.40;;
12871;SDS011;6504;53.766;9.626;2022-07-04T00:56:22;4.87;;;3.33;;
12871;SDS011;6504;53.766;9.626;2022-07-04T00:58:51;5.63;;;4.23;;
12871;SDS011;6504;53.766;9.626;2022-07-04T01:01:23;5.33;;;4.07;;
12871;SDS011;6504;53.766;9.626;2022-07-04T01:03:52;4.37;;;3.97;;
12871;SDS011;6504;53.766;9.626;2022-07-04T01:06:23;4.20;;;3.90;;
12871;SDS011;6504;53.766;9.626;2022-07-04T01:08:52;4.30;;;4.00;;
12871;SDS011;6504;53.766;9.626;2022-07-04T01:11:20;4.27;;;3.87;;
12871;SDS011;6504;53.766;9.626;2022-07-04T01:13:54;4.53;;;3.93;;
12871;SDS011;6504;53.766;9.626;2022-07-04T01:16:23;4.07;;;3.37;;
12871;SDS011;6504;53.766;9.626;2022-07-04T01:18:56;3.77;;;3.47;;
12871;SDS011;6504;53.766;9.626;2022-07-04T01:21:28;3.60;;;3.30;;
12871;SDS011;6504;53.766;9.626;2022-07-04T01:23:59;4.63;;;3.70;;
12871;SDS011;6504;53.766;9.626;2022-07-04T01:26:27;4.27;;;3.87;;
12871;SDS011;6504;53.766;9.626;2022-07-04T01:28:59;4.23;;;3.83;;
12871;SDS011;6504;53.766;9.626;2022-07-04T01:31:27;5.50;;;3.70;;
12871;SDS011;6504;53.766;9.626;2022-07-04T01:33:58;4.00;;;3.70;;
12871;SDS011;6504;53.766;9.626;2022-07-04T01:36:28;4.30;;;3.93;;
12871;SDS011;6504;53.766;9.626;2022-07-04T01:39:00;4.83;;;4.10;;
12871;SDS011;6504;53.766;9.626;2022-07-04T01:41:32;4.87;;;4.47;;
12871;SDS011;6504;53.766;9.626;2022-07-04T01:44:01;5.17;;;4.77;;
12871;SDS011;6504;53.766;9.626;2022-07-04T01:46:31;5.20;;;4.70;;
12871;SDS011;6504;53.766;9.626;2022-07-04T01:49:01;4.93;;;4.43;;
12871;SDS011;6504;53.766;9.626;2022-07-04T01:51:32;4.77;;;4.37;;
12871;SDS011;6504;53.766;9.626;2022-07-04T01:54:09;4.50;;;4.03;;
12871;SDS011;6504;53.766;9.626;2022-07-04T01:56:38;3.97;;;3.63;;
12871;SDS011;6504;53.766;9.626;2022-07-04T01:59:07;5.27;;;4.30;;
12871;SDS011;6504;53.766;9.626;2022-07-04T02:01:38;4.83;;;4.43;;
12871;SDS011;6504;53.766;9.626;2022-07-04T02:04:05;4.87;;;4.13;;
12871;SDS011;6504;53.766;9.626;2022-07-04T02:06:36;6.03;;;4.60;;
12871;SDS011;6504;53.766;9.626;2022-07-04T02:09:06;4.70;;;4.30;;
12871;SDS011;6504;53.766;9.626;2022-07-04T02:11:44;5.43;;;4.93;;
12871;SDS011;6504;53.766;9.626;2022-07-04T02:14:32;5.67;;;5.17;;
12871;SDS011;6504;53.766;9.626;2022-07-04T02:17:00;6.50;;;5.60;;
12871;SDS011;6504;53.766;9.626;2022-07-04T02:19:28;6.73;;;5.63;;
12871;SDS011;6504;53.766;9.626;2022-07-04T02:22:04;5.33;;;4.87;;
12871;SDS011;6504;53.766;9.626;2022-07-04T02:24:35;6.70;;;5.63;;
12871;SDS011;6504;53.766;9.626;2022-07-04T02:27:03;5.50;;;5.10;;
12871;SDS011;6504;53.766;9.626;2022-07-04T02:29:32;5.67;;;5.17;;
12871;SDS011;6504;53.766;9.626;2022-07-04T02:32:05;5.30;;;4.77;;
12871;SDS011;6504;53.766;9.626;2022-07-04T02:34:34;5.50;;;5.10;;
12871;SDS011;6504;53.766;9.626;2022-07-04T02:37:10;4.80;;;4.50;;
12871;SDS011;6504;53.766;9.626;2022-07-04T02:39:38;5.17;;;4.70;;
12871;SDS011;6504;53.766;9.626;2022-07-04T02:42:09;5.10;;;4.57;;
12871;SDS011;6504;53.766;9.626;2022-07-04T02:44:37;5.50;;;4.60;;
12871;SDS011;6504;53.766;9.626;2022-07-04T02:47:05;5.63;;;4.83;;
12871;SDS011;6504;53.766;9.626;2022-07-04T02:49:33;5.00;;;4.50;;
12871;SDS011;6504;53.766;9.626;2022-07-04T02:52:04;4.80;;;4.23;;
12871;SDS011;6504;53.766;9.626;2022-07-04T02:54:34;5.50;;;5.07;;
12871;SDS011;6504;53.766;9.626;2022-07-04T02:57:05;5.37;;;4.87;;
12871;SDS011;6504;53.766;9.626;2022-07-04T02:59:34;6.67;;;5.10;;
12871;SDS011;6504;53.766;9.626;2022-07-04T03:02:02;5.27;;;4.77;;
12871;SDS011;6504;53.766;9.626;2022-07-04T03:04:32;5.70;;;5.20;;
12871;SDS011;6504;53.766;9.626;2022-07-04T03:07:01;5.47;;;4.97;;
12871;SDS011;6504;53.766;9.626;2022-07-04T03:09:29;5.10;;;4.60;;
12871;SDS011;6504;53.766;9.626;2022-07-04T03:11:58;6.63;;;5.40;;
12871;SDS011;6504;53.766;9.626;2022-07-04T03:14:26;5.20;;;4.70;;
12871;SDS011;6504;53.766;9.626;2022-07-04T03:16:57;6.03;;;5.23;;
12871;SDS011;6504;53.766;9.626;2022-07-04T03:19:25;6.20;;;5.17;;
12871;SDS011;6504;53.766;9.626;2022-07-04T03:21:53;8.23;;;5.17;;
12871;SDS011;6504;53.766;9.626;2022-07-04T03:24:24;7.03;;;5.03;;
12871;SDS011;6504;53.766;9.626;2022-07-04T03:26:52;6.00;;;5.10;;
12871;SDS011;6504;53.766;9.626;2022-07-04T03:29:21;6.53;;;5.23;;
12871;SDS011;6504;53.766;9.626;2022-07-04T03:31:49;5.93;;;5.43;;
12871;SDS011;6504;53.766;9.626;2022-07-04T03:34:17;6.17;;;5.30;;
12871;SDS011;6504;53.766;9.626;2022-07-04T03:36:48;7.00;;;5.40;;
12871;SDS011;6504;53.766;9.626;2022-07-04T03:39:16;6.20;;;5.40;;
12871;SDS011;6504;53.766;9.626;2022-07-04T03:41:44;6.07;;;5.50;;
12871;SDS011;6504;53.766;9.626;2022-07-04T03:44:13;7.87;;;5.57;;
12871;SDS011;6504;53.766;9.626;2022-07-04T03:46:42;5.63;;;4.93;;
12871;SDS011;6504;53.766;9.626;2022-07-04T03:49:10;5.77;;;5.27;;
12871;SDS011;6504;53.766;9.626;2022-07-04T03:51:39;5.73;;;5.20;;
12871;SDS011;6504;53.766;9.626;2022-07-04T03:54:07;5.90;;;5.20;;
12871;SDS011;6504;53.766;9.626;2022-07-04T03:56:43;6.77;;;5.70;;
12871;SDS011;6504;53.766;9.626;2022-07-04T03:59:14;6.63;;;5.30;;
12871;SDS011;6504;53.766;9.626;2022-07-04T04:01:43;5.80;;;5.17;;
12871;SDS011;6504;53.766;9.626;2022-07-04T04:04:15;6.73;;;5.60;;
12871;SDS011;6504;53.766;9.626;2022-07-04T04:07:02;5.87;;;5.33;;
12871;SDS011;6504;53.766;9.626;2022-07-04T04:09:32;5.43;;;5.03;;
12871;SDS011;6504;53.766;9.626;2022-07-04T04:12:03;6.23;;;5.63;;
12871;SDS011;6504;53.766;9.626;2022-07-04T04:14:32;6.83;;;5.43;;
12871;SDS011;6504;53.766;9.626;2022-07-04T04:17:04;6.13;;;5.53;;
12871;SDS011;6504;53.766;9.626;2022-07-04T04:19:32;6.27;;;5.67;;
12871;SDS011;6504;53.766;9.626;2022-07-04T04:22:01;6.40;;;5.70;;
12871;SDS011;6504;53.766;9.626;2022-07-04T04:24:31;6.17;;;5.57;;
12871;SDS011;6504;53.766;9.626;2022-07-04T04:26:59;6.63;;;6.00;;
12871;SDS011;6504;53.766;9.626;2022-07-04T04:29:30;6.00;;;5.50;;
12871;SDS011;6504;53.766;9.626;2022-07-04T04:31:58;5.90;;;5.10;;
12871;SDS011;6504;53.766;9.626;2022-07-04T04:34:27;6.57;;;5.87;;
12871;SDS011;6504;53.766;9.626;2022-07-04T04:37:00;6.77;;;6.10;;
12871;SDS011;6504;53.766;9.626;2022-07-04T04:39:28;7.63;;;5.80;;
12871;SDS011;6504;53.766;9.626;2022-07-04T04:41:56;5.90;;;5.30;;
12871;SDS011;6504;53.766;9.626;2022-07-04T04:44:30;6.80;;;6.20;;
12871;SDS011;6504;53.766;9.626;2022-07-04T04:46:59;7.03;;;6.27;;
12871;SDS011;6504;53.766;9.626;2022-07-04T04:49:32;6.63;;;5.93;;
12871;SDS011;6504;53.766;9.626;2022-07-04T04:52:00;6.13;;;5.53;;
12871;SDS011;6504;53.766;9.626;2022-07-04T04:54:28;6.57;;;5.97;;
12871;SDS011;6504;53.766;9.626;2022-07-04T04:56:56;6.33;;;5.30;;
12871;SDS011;6504;53.766;9.626;2022-07-04T04:59:28;6.13;;;5.40;;
12871;SDS011;6504;53.766;9.626;2022-07-04T05:01:56;6.30;;;5.50;;
12871;SDS011;6504;53.766;9.626;2022-07-04T05:04:29;5.67;;;5.07;;
12871;SDS011;6504;53.766;9.626;2022-07-04T05:06:58;5.53;;;4.77;;
12871;SDS011;6504;53.766;9.626;2022-07-04T05:09:27;5.50;;;4.97;;
12871;SDS011;6504;53.766;9.626;2022-07-04T05:11:58;6.53;;;5.30;;
12871;SDS011;6504;53.766;9.626;2022-07-04T05:14:26;5.17;;;4.43;;
12871;SDS011;6504;53.766;9.626;2022-07-04T05:16:54;6.33;;;5.00;;
12871;SDS011;6504;53.766;9.626;2022-07-04T05:19:23;5.27;;;4.57;;
12871;SDS011;6504;53.766;9.626;2022-07-04T05:21:54;5.70;;;3.87;;
12871;SDS011;6504;53.766;9.626;2022-07-04T05:24:23;4.50;;;4.10;;
12871;SDS011;6504;53.766;9.626;2022-07-04T05:26:51;5.60;;;4.10;;
12871;SDS011;6504;53.766;9.626;2022-07-04T05:29:24;4.60;;;4.20;;
12871;SDS011;6504;53.766;9.626;2022-07-04T05:31:52;5.07;;;4.10;;
12871;SDS011;6504;53.766;9.626;2022-07-04T05:34:24;6.97;;;4.00;;
12871;SDS011;6504;53.766;9.626;2022-07-04T05:36:52;4.57;;;4.07;;
12871;SDS011;6504;53.766;9.626;2022-07-04T05:39:21;4.73;;;3.37;;
12871;SDS011;6504;53.766;9.626;2022-07-04T05:41:55;3.80;;;3.50;;
12871;SDS011;6504;53.766;9.626;2022-07-04T05:44:23;5.47;;;3.90;;
12871;SDS011;6504;53.766;9.626;2022-07-04T05:46:54;4.30;;;3.50;;
12871;SDS011;6504;53.766;9.626;2022-07-04T05:49:22;5.13;;;3.73;;
12871;SDS011;6504;53.766;9.626;2022-07-04T05:51:51;4.93;;;3.63;;
12871;SDS011;6504;53.766;9.626;2022-07-04T05:54:19;5.87;;;3.60;;
12871;SDS011;6504;53.766;9.626;2022-07-04T05:56:49;4.67;;;3.40;;
12871;SDS011;6504;53.766;9.626;2022-07-04T05:59:18;4.43;;;3.33;;
12871;SDS011;6504;53.766;9.626;2022-07-04T06:01:46;4.10;;;3.43;;
12871;SDS011;6504;53.766;9.626;2022-07-04T06:04:15;5.60;;;3.33;;
12871;SDS011;6504;53.766;9.626;2022-07-04T06:06:44;4.23;;;3.33;;
12871;SDS011;6504;53.766;9.626;2022-07-04T06:09:13;6.00;;;3.43;;
12871;SDS011;6504;53.766;9.626;2022-07-04T06:11:42;5.30;;;3.30;;
12871;SDS011;6504;53.766;9.626;2022-07-04T06:14:14;4.83;;;3.03;;
12871;SDS011;6504;53.766;9.626;2022-07-04T06:16:42;5.37;;;3.37;;
12871;SDS011;6504;53.766;9.626;2022-07-04T06:19:15;3.87;;;3.13;;
12871;SDS011;6504;53.766;9.626;2022-07-04T06:21:43;4.53;;;2.90;;
12871;SDS011;6504;53.766;9.626;2022-07-04T06:24:11;6.83;;;3.17;;
12871;SDS011;6504;53.766;9.626;2022-07-04T06:26:39;5.37;;;3.20;;
12871;SDS011;6504;53.766;9.626;2022-07-04T06:29:08;6.43;;;3.27;;
12871;SDS011;6504;53.766;9.626;2022-07-04T06:31:39;3.80;;;3.13;;
12871;SDS011;6504;53.766;9.626;2022-07-04T06:34:07;3.83;;;3.03;;
12871;SDS011;6504;53.766;9.626;2022-07-04T06:36:53;4.30;;;2.60;;
12871;SDS011;6504;53.766;9.626;2022-07-04T06:39:22;4.07;;;2.93;;
12871;SDS011;6504;53.766;9.626;2022-07-04T06:41:50;6.67;;;3.43;;
12871;SDS011;6504;53.766;9.626;2022-07-04T06:44:18;8.10;;;3.80;;
12871;SDS011;6504;53.766;9.626;2022-07-04T06:46:50;8.23;;;3.50;;
12871;SDS011;6504;53.766;9.626;2022-07-04T06:49:19;4.67;;;3.23;;
12871;SDS011;6504;53.766;9.626;2022-07-04T06:51:51;5.60;;;2.90;;
12871;SDS011;6504;53.766;9.626;2022-07-04T06:54:19;4.97;;;3.03;;
12871;SDS011;6504;53.766;9.626;2022-07-04T06:56:47;6.10;;;3.20;;
12871;SDS011;6504;53.766;9.626;2022-07-04T06:59:38;5.30;;;3.43;;
12871;SDS011;6504;53.766;9.626;2022-07-04T07:02:08;4.63;;;3.20;;
12871;SDS011;6504;53.766;9.626;2022-07-04T07:04:37;4.30;;;2.50;;
12871;SDS011;6504;53.766;9.626;2022-07-04T07:07:09;6.77;;;2.60;;
12871;SDS011;6504;53.766;9.626;2022-07-04T07:09:37;3.87;;;2.30;;
12871;SDS011;6504;53.766;9.626;2022-07-04T07:12:09;3.17;;;2.43;;
12871;SDS011;6504;53.766;9.626;2022-07-04T07:14:37;4.80;;;2.27;;
12871;SDS011;6504;53.766;9.626;2022-07-04T07:17:05;5.17;;;2.57;;
12871;SDS011;6504;53.766;9.626;2022-07-04T07:19:38;4.63;;;2.87;;
12871;SDS011;6504;53.766;9.626;2022-07-04T07:22:06;4.10;;;2.43;;
12871;SDS011;6504;53.766;9.626;2022-07-04T07:24:35;3.97;;;2.23;;
12871;SDS011;6504;53.766;9.626;2022-07-04T07:27:03;4.33;;;2.57;;
12871;SDS011;6504;53.766;9.626;2022-07-04T07:29:32;4.07;;;2.40;;
12871;SDS011;6504;53.766;9.626;2022-07-04T07:32:07;2.60;;;2.10;;
12871;SDS011;6504;53.766;9.626;2022-07-04T07:34:35;5.60;;;2.63;;
12871;SDS011;6504;53.766;9.626;2022-07-04T07:37:07;4.23;;;2.23;;
12871;SDS011;6504;53.766;9.626;2022-07-04T07:39:35;5.37;;;2.63;;
12871;SDS011;6504;53.766;9.626;2022-07-04T07:42:07;2.77;;;1.90;;
12871;SDS011;6504;53.766;9.626;2022-07-04T07:44:35;3.27;;;1.97;;
12871;SDS011;6504;53.766;9.626;2022-07-04T07:47:03;4.23;;;1.90;;
12871;SDS011;6504;53.766;9.626;2022-07-04T07:49:40;4.33;;;2.07;;
12871;SDS011;6504;53.766;9.626;2022-07-04T07:52:09;2.63;;;1.63;;
12871;SDS011;6504;53.766;9.626;2022-07-04T07:54:38;2.00;;;1.80;;
12871;SDS011;6504;53.766;9.626;2022-07-04T07:57:26;2.07;;;1.47;;
12871;SDS011;6504;53.766;9.626;2022-07-04T07:59:54;2.13;;;1.40;;
12871;SDS011;6504;53.766;9.626;2022-07-04T08:02:23;3.70;;;1.60;;
12871;SDS011;6504;53.766;9.626;2022-07-04T08:05:13;5.33;;;1.73;;
12871;SDS011;6504;53.766;9.626;2022-07-04T08:07:40;2.90;;;1.40;;
12871;SDS011;6504;53.766;9.626;2022-07-04T08:10:11;3.43;;;1.30;;
12871;SDS011;6504;53.766;9.626;2022-07-04T08:12:39;4.17;;;1.33;;
12871;SDS011;6504;53.766;9.626;2022-07-04T08:15:08;3.20;;;1.50;;
12871;SDS011;6504;53.766;9.626;2022-07-04T08:17:39;4.63;;;1.47;;
12871;SDS011;6504;53.766;9.626;2022-07-04T08:20:07;2.47;;;1.20;;
12871;SDS011;6504;53.766;9.626;2022-07-04T08:22:37;1.70;;;1.40;;
12871;SDS011;6504;53.766;9.626;2022-07-04T08:25:08;3.73;;;1.53;;
12871;SDS011;6504;53.766;9.626;2022-07-04T08:27:36;2.07;;;1.37;;
12871;SDS011;6504;53.766;9.626;2022-07-04T08:30:05;3.17;;;1.40;;
12871;SDS011;6504;53.766;9.626;2022-07-04T08:32:36;2.80;;;1.60;;
12871;SDS011;6504;53.766;9.626;2022-07-04T08:35:05;3.10;;;1.47;;
12871;SDS011;6504;53.766;9.626;2022-07-04T08:37:33;2.67;;;1.13;;
12871;SDS011;6504;53.766;9.626;2022-07-04T08:40:03;2.83;;;1.37;;
12871;SDS011;6504;53.766;9.626;2022-07-04T08:42:35;3.23;;;1.20;;
12871;SDS011;6504;53.766;9.626;2022-07-04T08:45:05;2.03;;;1.07;;
12871;SDS011;6504;53.766;9.626;2022-07-04T08:47:38;2.97;;;1.33;;
12871;SDS011;6504;53.766;9.626;2022-07-04T08:50:10;2.33;;;1.23;;
12871;SDS011;6504;53.766;9.626;2022-07-04T08:52:40;2.07;;;1.00;;
12871;SDS011;6504;53.766;9.626;2022-07-04T08:55:11;3.20;;;1.27;;
12871;SDS011;6504;53.766;9.626;2022-07-04T08:57:58;2.30;;;1.00;;
12871;SDS011;6504;53.766;9.626;2022-07-04T09:00:46;2.80;;;1.20;;
12871;SDS011;6504;53.766;9.626;2022-07-04T09:03:15;1.77;;;1.17;;
12871;SDS011;6504;53.766;9.626;2022-07-04T09:05:45;3.33;;;1.10;;
12871;SDS011;6504;53.766;9.626;2022-07-04T09:08:17;2.93;;;1.30;;
12871;SDS011;6504;53.766;9.626;2022-07-04T09:10:47;2.10;;;1.10;;
12871;SDS011;6504;53.766;9.626;2022-07-04T09:13:19;3.33;;;1.40;;
12871;SDS011;6504;53.766;9.626;2022-07-04T09:15:49;5.07;;;1.50;;
12871;SDS011;6504;53.766;9.626;2022-07-04T09:18:19;3.00;;;1.47;;
12871;SDS011;6504;53.766;9.626;2022-07-04T09:20:49;2.33;;;1.10;;
12871;SDS011;6504;53.766;9.626;2022-07-04T09:23:21;2.90;;;1.30;;
12871;SDS011;6504;53.766;9.626;2022-07-04T09:26:06;2.33;;;1.03;;
12871;SDS011;6504;53.766;9.626;2022-07-04T09:28:38;3.23;;;1.03;;
12871;SDS011;6504;53.766;9.626;2022-07-04T09:31:17;4.80;;;1.13;;
12871;SDS011;6504;53.766;9.626;2022-07-04T09:33:51;3.10;;;1.10;;
12871;SDS011;6504;53.766;9.626;2022-07-04T09:36:21;1.53;;;1.07;;
12871;SDS011;6504;53.766;9.626;2022-07-04T09:39:04;3.10;;;1.10;;
12871;SDS011;6504;53.766;9.626;2022-07-04T09:41:38;4.17;;;1.20;;
12871;SDS011;6504;53.766;9.626;2022-07-04T09:44:20;3.43;;;1.20;;
12871;SDS011;6504;53.766;9.626;2022-07-04T09:46:49;3.77;;;1.30;;
12871;SDS011;6504;53.766;9.626;2022-07-04T09:49:18;2.67;;;1.20;;
12871;SDS011;6504;53.766;9.626;2022-07-04T09:51:47;2.57;;;0.90;;
12871;SDS011;6504;53.766;9.626;2022-07-04T09:54:21;2.37;;;1.00;;
12871;SDS011;6504;53.766;9.626;2022-07-04T09:56:54;2.80;;;1.13;;
12871;SDS011;6504;53.766;9.626;2022-07-04T09:59:24;2.43;;;0.90;;
12871;SDS011;6504;53.766;9.626;2022-07-04T10:02:05;2.50;;;0.97;;
12871;SDS011;6504;53.766;9.626;2022-07-04T10:04:41;3.93;;;1.17;;
12871;SDS011;6504;53.766;9.626;2022-07-04T10:07:11;1.27;;;0.80;;
12871;SDS011;6504;53.766;9.626;2022-07-04T10:09:39;1.30;;;0.77;;
12871;SDS011;6504;53.766;9.626;2022-07-04T10:12:10;2.13;;;0.90;;
12871;SDS011;6504;53.766;9.626;2022-07-04T10:14:56;2.67;;;1.10;;
12871;SDS011;6504;53.766;9.626;2022-07-04T10:17:24;2.33;;;1.07;;
12871;SDS011;6504;53.766;9.626;2022-07-04T10:19:52;2.07;;;1.00;;
12871;SDS011;6504;53.766;9.626;2022-07-04T10:22:24;3.07;;;1.03;;
12871;SDS011;6504;53.766;9.626;2022-07-04T10:24:53;2.63;;;1.10;;
12871;SDS011;6504;53.766;9.626;2022-07-04T10:27:22;1.73;;;1.00;;
12871;SDS011;6504;53.766;9.626;2022-07-04T10:29:54;1.93;;;0.90;;
12871;SDS011;6504;53.766;9.626;2022-07-04T10:32:22;4.17;;;1.40;;
12871;SDS011;6504;53.766;9.626;2022-07-04T10:34:54;1.73;;;1.33;;
12871;SDS011;6504;53.766;9.626;2022-07-04T10:37:22;2.90;;;1.20;;
12871;SDS011;6504;53.766;9.626;2022-07-04T10:39:51;3.07;;;1.17;;
12871;SDS011;6504;53.766;9.626;2022-07-04T10:42:23;3.50;;;1.23;;
12871;SDS011;6504;53.766;9.626;2022-07-04T10:45:00;3.60;;;1.00;;
12871;SDS011;6504;53.766;9.626;2022-07-04T10:47:28;2.80;;;1.20;;
12871;SDS011;6504;53.766;9.626;2022-07-04T10:50:03;3.30;;;1.10;;
12871;SDS011;6504;53.766;9.626;2022-07-04T10:52:31;2.60;;;1.00;;
12871;SDS011;6504;53.766;9.626;2022-07-04T10:55:10;4.03;;;1.20;;
12871;SDS011;6504;53.766;9.626;2022-07-04T10:57:42;1.67;;;1.00;;
12871;SDS011;6504;53.766;9.626;2022-07-04T11:00:11;2.07;;;1.20;;
12871;SDS011;6504;53.766;9.626;2022-07-04T11:02:40;2.13;;;1.30;;
12871;SDS011;6504;53.766;9.626;2022-07-04T11:05:10;1.90;;;1.10;;
12871;SDS011;6504;53.766;9.626;2022-07-04T11:08:00;3.27;;;1.50;;
12871;SDS011;6504;53.766;9.626;2022-07-04T11:10:31;4.17;;;1.70;;
12871;SDS011;6504;53.766;9.626;2022-07-04T11:13:06;3.00;;;1.43;;
12871;SDS011;6504;53.766;9.626;2022-07-04T11:16:00;4.33;;;1.60;;
12871;SDS011;6504;53.766;9.626;2022-07-04T11:18:38;1.57;;;1.30;;
12871;SDS011;6504;53.766;9.626;2022-07-04T11:21:20;2.00;;;1.40;;
12871;SDS011;6504;53.766;9.626;2022-07-04T11:23:53;3.03;;;1.30;;
12871;SDS011;6504;53.766;9.626;2022-07-04T11:26:24;2.90;;;1.23;;
12871;SDS011;6504;53.766;9.626;2022-07-04T11:28:54;2.43;;;1.17;;
12871;SDS011;6504;53.766;9.626;2022-07-04T11:31:37;4.20;;;1.50;;
12871;SDS011;6504;53.766;9.626;2022-07-04T11:34:07;2.53;;;1.40;;
12871;SDS011;6504;53.766;9.626;2022-07-04T11:36:38;2.13;;;1.20;;
12871;SDS011;6504;53.766;9.626;2022-07-04T11:39:08;3.57;;;1.13;;
12871;SDS011;6504;53.766;9.626;2022-07-04T11:41:42;1.83;;;1.10;;
12871;SDS011;6504;53.766;9.626;2022-07-04T11:44:30;1.70;;;1.00;;
12871;SDS011;6504;53.766;9.626;2022-07-04T11:47:18;2.63;;;0.97;;
12871;SDS011;6504;53.766;9.626;2022-07-04T11:49:55;2.70;;;1.10;;
12871;SDS011;6504;53.766;9.626;2022-07-04T11:52:25;2.33;;;1.13;;
12871;SDS011;6504;53.766;9.626;2022-07-04T11:55:17;3.90;;;1.30;;
12871;SDS011;6504;53.766;9.626;2022-07-04T11:57:46;4.17;;;1.10;;
12871;SDS011;6504;53.766;9.626;2022-07-04T12:00:17;1.67;;;1.10;;
12871;SDS011;6504;53.766;9.626;2022-07-04T12:02:52;2.33;;;1.10;;
12871;SDS011;6504;53.766;9.626;2022-07-04T12:05:29;2.07;;;1.00;;
12871;SDS011;6504;53.766;9.626;2022-07-04T12:07:57;2.30;;;1.20;;
12871;SDS011;6504;53.766;9.626;2022-07-04T12:10:49;2.73;;;1.40;;
12871;SDS011;6504;53.766;9.626;2022-07-04T12:13:18;2.87;;;1.40;;
12871;SDS011;6504;53.766;9.626;2022-07-04T12:15:51;3.13;;;1.40;;
12871;SDS011;6504;53.766;9.626;2022-07-04T12:18:20;2.90;;;1.50;;
12871;SDS011;6504;53.766;9.626;2022-07-04T12:20:50;2.67;;;1.23;;
12871;SDS011;6504;53.766;9.626;2022-07-04T12:23:24;1.43;;;1.10;;
12871;SDS011;6504;53.766;9.626;2022-07-04T12:25:55;3.20;;;1.60;;
12871;SDS011;6504;53.766;9.626;2022-07-04T12:28:23;3.87;;;1.33;;
12871;SDS011;6504;53.766;9.626;2022-07-04T12:30:53;2.93;;;1.40;;
12871;SDS011;6504;53.766;9.626;2022-07-04T12:33:26;2.23;;;1.37;;
12871;SDS011;6504;53.766;9.626;2022-07-04T12:35:56;4.27;;;1.60;;
12871;SDS011;6504;53.766;9.626;2022-07-04T12:38:34;2.87;;;1.30;;
12871;SDS011;6504;53.766;9.626;2022-07-04T12:41:04;2.57;;;1.37;;
12871;SDS011;6504;53.766;9.626;2022-07-04T12:43:44;3.77;;;1.47;;
12871;SDS011;6504;53.766;9.626;2022-07-04T12:46:25;3.37;;;1.40;;
12871;SDS011;6504;53.766;9.626;2022-07-04T12:49:00;4.83;;;1.70;;
12871;SDS011;6504;53.766;9.626;2022-07-04T12:51:30;2.37;;;1.20;;
12871;SDS011;6504;53.766;9.626;2022-07-04T12:53:59;3.77;;;1.60;;
12871;SDS011;6504;53.766;9.626;2022-07-04T12:56:37;2.73;;;1.53;;
12871;SDS011;6504;53.766;9.626;2022-07-04T12:59:09;4.57;;;1.67;;
12871;SDS011;6504;53.766;9.626;2022-07-04T13:01:43;2.20;;;1.50;;
12871;SDS011;6504;53.766;9.626;2022-07-04T13:04:15;2.87;;;1.60;;
12871;SDS011;6504;53.766;9.626;2022-07-04T13:06:44;3.50;;;1.70;;
12871;SDS011;6504;53.766;9.626;2022-07-04T13:09:13;3.83;;;1.80;;
12871;SDS011;6504;53.766;9.626;2022-07-04T13:11:41;4.17;;;1.77;;
12871;SDS011;6504;53.766;9.626;2022-07-04T13:14:28;2.10;;;1.77;;
12871;SDS011;6504;53.766;9.626;2022-07-04T13:16:58;3.03;;;1.73;;
12871;SDS011;6504;53.766;9.626;2022-07-04T13:19:29;3.33;;;1.70;;
12871;SDS011;6504;53.766;9.626;2022-07-04T13:21:57;3.43;;;1.77;;
12871;SDS011;6504;53.766;9.626;2022-07-04T13:24:25;3.00;;;1.70;;
12871;SDS011;6504;53.766;9.626;2022-07-04T13:26:53;3.27;;;1.77;;
12871;SDS011;6504;53.766;9.626;2022-07-04T13:29:24;2.87;;;1.70;;
12871;SDS011;6504;53.766;9.626;2022-07-04T13:31:52;2.83;;;1.50;;
12871;SDS011;6504;53.766;9.626;2022-07-04T13:34:22;3.93;;;1.70;;
12871;SDS011;6504;53.766;9.626;2022-07-04T13:36:53;4.00;;;1.70;;
12871;SDS011;6504;53.766;9.626;2022-07-04T13:39:22;3.27;;;2.00;;
12871;SDS011;6504;53.766;9.626;2022-07-04T13:42:12;4.20;;;1.90;;
12871;SDS011;6504;53.766;9.626;2022-07-04T13:45:04;2.67;;;1.50;;
12871;SDS011;6504;53.766;9.626;2022-07-04T13:47:33;2.80;;;1.73;;
12871;SDS011;6504;53.766;9.626;2022-07-04T13:50:04;3.93;;;1.67;;
12871;SDS011;6504;53.766;9.626;2022-07-04T13:52:33;3.53;;;1.30;;
12871;SDS011;6504;53.766;9.626;2022-07-04T13:55:01;4.07;;;1.50;;
12871;SDS011;6504;53.766;9.626;2022-07-04T13:57:30;2.33;;;1.20;;
12871;SDS011;6504;53.766;9.626;2022-07-04T13:59:58;3.07;;;1.40;;
12871;SDS011;6504;53.766;9.626;2022-07-04T14:02:26;3.33;;;1.30;;
12871;SDS011;6504;53.766;9.626;2022-07-04T14:05:02;3.40;;;1.20;;
12871;SDS011;6504;53.766;9.626;2022-07-04T14:07:35;2.03;;;1.27;;
12871;SDS011;6504;53.766;9.626;2022-07-04T14:10:04;3.17;;;1.30;;
12871;SDS011;6504;53.766;9.626;2022-07-04T14:12:36;2.80;;;1.30;;
12871;SDS011;6504;53.766;9.626;2022-07-04T14:15:04;3.57;;;1.70;;
12871;SDS011;6504;53.766;9.626;2022-07-04T14:17:33;3.10;;;1.47;;
12871;SDS011;6504;53.766;9.626;2022-07-04T14:20:07;4.60;;;1.53;;
12871;SDS011;6504;53.766;9.626;2022-07-04T14:22:40;4.67;;;1.43;;
12871;SDS011;6504;53.766;9.626;2022-07-04T14:25:08;2.07;;;1.20;;
12871;SDS011;6504;53.766;9.626;2022-07-04T14:27:36;1.50;;;1.20;;
12871;SDS011;6504;53.766;9.626;2022-07-04T14:30:05;4.03;;;1.63;;
12871;SDS011;6504;53.766;9.626;2022-07-04T14:32:34;7.27;;;1.67;;
12871;SDS011;6504;53.766;9.626;2022-07-04T14:35:02;2.40;;;1.33;;
12871;SDS011;6504;53.766;9.626;2022-07-04T14:37:39;3.87;;;1.37;;
12871;SDS011;6504;53.766;9.626;2022-07-04T14:40:08;5.07;;;1.40;;
12871;SDS011;6504;53.766;9.626;2022-07-04T14:42:37;2.57;;;1.23;;
12871;SDS011;6504;53.766;9.626;2022-07-04T14:45:05;3.67;;;1.50;;
12871;SDS011;6504;53.766;9.626;2022-07-04T14:47:38;2.20;;;1.23;;
12871;SDS011;6504;53.766;9.626;2022-07-04T14:50:10;4.30;;;1.40;;
12871;SDS011;6504;53.766;9.626;2022-07-04T14:52:40;3.03;;;1.37;;
12871;SDS011;6504;53.766;9.626;2022-07-04T14:55:08;4.00;;;1.30;;
12871;SDS011;6504;53.766;9.626;2022-07-04T14:57:38;3.30;;;1.03;;
12871;SDS011;6504;53.766;9.626;2022-07-04T15:00:07;3.47;;;1.47;;
12871;SDS011;6504;53.766;9.626;2022-07-04T15:02:36;1.73;;;1.10;;
12871;SDS011;6504;53.766;9.626;2022-07-04T15:05:04;2.70;;;1.20;;
12871;SDS011;6504;53.766;9.626;2022-07-04T15:07:38;3.33;;;1.60;;
12871;SDS011;6504;53.766;9.626;2022-07-04T15:10:07;2.83;;;1.10;;
12871;SDS011;6504;53.766;9.626;2022-07-04T15:12:36;5.10;;;1.37;;
12871;SDS011;6504;53.766;9.626;2022-07-04T15:15:07;5.33;;;1.43;;
12871;SDS011;6504;53.766;9.626;2022-07-04T15:17:56;3.43;;;1.33;;
12871;SDS011;6504;53.766;9.626;2022-07-04T15:20:24;3.10;;;1.50;;
12871;SDS011;6504;53.766;9.626;2022-07-04T15:23:14;5.03;;;1.47;;
12871;SDS011;6504;53.766;9.626;2022-07-04T15:26:01;4.07;;;1.30;;